sensor_id;sensor_type;location;lat;lon;timestamp;pressure;altitude;pressure_sealevel;temperature;humidity
250;BME280;109;19.806;-70.704;2023-01-01T00:01:36;101770.38;;;24.00;65.01
250;BME280;109;19.806;-70.704;2023-01-01T00:04:13;101765.19;;;23.96;65.03
250;BME280;109;19.806;-70.704;2023-01-01T00:06:41;101774.34;;;23.89;65.28
250;BME280;109;19.806;-70.704;2023-01-01T00:09:15;101777.03;;;23.89;65.09
250;BME280;109;19.806;-70.704;2023-01-01T00:12:06;101770.16;;;23.80;65.09
250;BME280;109;19.806;-70.704;2023-01-01T00:14:32;101774.81;;;23.75;65.23
250;BME280;109;19.806;-70.704;2023-01-01T00:17:06;101782.78;;;23.77;65.17
250;BME280;109;19.806;-70.704;2023-01-01T00:19:33;101788.28;;;23.72;65.29
250;BME280;109;19.806;-70.704;2023-01-01T00:22:06;101785.75;;;23.67;65.34
250;BME280;109;19.806;-70.704;2023-01-01T00:24:33;101783.91;;;23.69;65.43
250;BME280;109;19.806;-70.704;2023-01-01T00:27:06;101785.00;;;23.64;65.42
250;BME280;109;19.806;-70.704;2023-01-01T00:29:32;101790.25;;;23.67;65.54
250;BME280;109;19.806;-70.704;2023-01-01T00:32:06;101794.72;;;23.66;65.39
250;BME280;109;19.806;-70.704;2023-01-01T00:34:40;101792.84;;;23.68;65.39
250;BME280;109;19.806;-70.704;2023-01-01T00:37:21;101799.28;;;23.63;65.38
250;BME280;109;19.806;-70.704;2023-01-01T00:39:47;101799.97;;;23.68;65.51
250;BME280;109;19.806;-70.704;2023-01-01T00:42:27;101801.84;;;23.66;65.37
250;BME280;109;19.806;-70.704;2023-01-01T00:44:54;101802.66;;;23.68;65.13
250;BME280;109;19.806;-70.704;2023-01-01T00:47:33;101806.38;;;23.64;65.24
250;BME280;109;19.806;-70.704;2023-01-01T00:49:59;101802.03;;;23.60;65.11
250;BME280;109;19.806;-70.704;2023-01-01T00:52:40;101800.97;;;23.65;65.07
250;BME280;109;19.806;-70.704;2023-01-01T00:55:07;101796.75;;;23.57;65.16
250;BME280;109;19.806;-70.704;2023-01-01T00:57:47;101803.06;;;23.54;65.05
250;BME280;109;19.806;-70.704;2023-01-01T01:00:14;101804.81;;;23.55;65.34
250;BME280;109;19.806;-70.704;2023-01-01T01:02:54;101810.94;;;23.60;65.11
250;BME280;109;19.806;-70.704;2023-01-01T01:05:21;101800.19;;;23.62;65.21
250;BME280;109;19.806;-70.704;2023-01-01T01:08:03;101806.56;;;23.56;65.07
250;BME280;109;19.806;-70.704;2023-01-01T01:10:43;101805.63;;;23.59;64.85
250;BME280;109;19.806;-70.704;2023-01-01T01:13:11;101805.66;;;23.57;64.72
250;BME280;109;19.806;-70.704;2023-01-01T01:15:51;101800.41;;;23.54;65.00
250;BME280;109;19.806;-70.704;2023-01-01T01:18:18;101806.22;;;23.41;64.94
250;BME280;109;19.806;-70.704;2023-01-01T01:20:57;101809.09;;;23.33;65.34
250;BME280;109;19.806;-70.704;2023-01-01T01:23:32;101811.56;;;23.41;65.11
250;BME280;109;19.806;-70.704;2023-01-01T01:26:19;101813.47;;;23.35;65.26
250;BME280;109;19.806;-70.704;2023-01-01T01:28:52;101815.28;;;23.35;65.34
250;BME280;109;19.806;-70.704;2023-01-01T01:31:33;101821.44;;;23.37;65.19
250;BME280;109;19.806;-70.704;2023-01-01T01:34:00;101824.22;;;23.34;65.08
250;BME280;109;19.806;-70.704;2023-01-01T01:36:47;101825.78;;;23.41;65.19
250;BME280;109;19.806;-70.704;2023-01-01T01:39:26;101830.19;;;23.42;65.06
250;BME280;109;19.806;-70.704;2023-01-01T01:42:15;101831.06;;;23.43;65.04
250;BME280;109;19.806;-70.704;2023-01-01T01:45:00;101835.47;;;23.44;64.92
250;BME280;109;19.806;-70.704;2023-01-01T01:47:54;101837.28;;;23.43;65.00
250;BME280;109;19.806;-70.704;2023-01-01T01:50:36;101837.88;;;23.53;64.56
250;BME280;109;19.806;-70.704;2023-01-01T01:53:19;101837.75;;;23.56;64.63
250;BME280;109;19.806;-70.704;2023-01-01T01:56:03;101834.34;;;23.52;64.49
250;BME280;109;19.806;-70.704;2023-01-01T01:58:38;101833.53;;;23.49;64.69
250;BME280;109;19.806;-70.704;2023-01-01T02:01:22;101835.38;;;23.47;64.72
250;BME280;109;19.806;-70.704;2023-01-01T02:03:58;101841.47;;;23.52;64.45
250;BME280;109;19.806;-70.704;2023-01-01T02:06:39;101840.66;;;23.50;64.81
250;BME280;109;19.806;-70.704;2023-01-01T02:09:07;101834.28;;;23.54;64.81
250;BME280;109;19.806;-70.704;2023-01-01T02:11:47;101843.22;;;23.53;64.67
250;BME280;109;19.806;-70.704;2023-01-01T02:14:13;101851.16;;;23.54;64.64
250;BME280;109;19.806;-70.704;2023-01-01T02:16:54;101842.44;;;23.49;64.70
250;BME280;109;19.806;-70.704;2023-01-01T02:22:16;101855.72;;;23.52;64.68
250;BME280;109;19.806;-70.704;2023-01-01T02:30:44;101856.59;;;23.53;64.63
250;BME280;109;19.806;-70.704;2023-01-01T02:33:23;101855.75;;;23.51;64.57
250;BME280;109;19.806;-70.704;2023-01-01T02:36:11;101858.56;;;23.46;64.33
250;BME280;109;19.806;-70.704;2023-01-01T02:38:54;101857.88;;;23.40;64.56
250;BME280;109;19.806;-70.704;2023-01-01T02:41:44;101861.47;;;23.39;64.55
250;BME280;109;19.806;-70.704;2023-01-01T02:44:20;101847.59;;;23.27;64.89
250;BME280;109;19.806;-70.704;2023-01-01T02:47:10;101854.75;;;23.25;64.88
250;BME280;109;19.806;-70.704;2023-01-01T02:50:02;101852.94;;;23.27;64.88
250;BME280;109;19.806;-70.704;2023-01-01T02:53:18;101862.81;;;23.24;65.12
250;BME280;109;19.806;-70.704;2023-01-01T02:56:07;101859.28;;;23.23;65.18
250;BME280;109;19.806;-70.704;2023-01-01T02:58:48;101847.59;;;23.27;65.17
250;BME280;109;19.806;-70.704;2023-01-01T03:01:58;101853.72;;;23.29;65.11
250;BME280;109;19.806;-70.704;2023-01-01T03:04:42;101858.06;;;23.33;65.02
250;BME280;109;19.806;-70.704;2023-01-01T03:10:40;101849.72;;;23.44;64.86
250;BME280;109;19.806;-70.704;2023-01-01T03:13:50;101850.50;;;23.48;64.52
250;BME280;109;19.806;-70.704;2023-01-01T03:16:48;101856.09;;;23.40;64.80
250;BME280;109;19.806;-70.704;2023-01-01T03:19:25;101850.09;;;23.32;65.11
250;BME280;109;19.806;-70.704;2023-01-01T03:22:16;101845.81;;;23.26;65.09
250;BME280;109;19.806;-70.704;2023-01-01T03:25:03;101839.50;;;23.29;65.19
250;BME280;109;19.806;-70.704;2023-01-01T03:27:52;101844.06;;;23.25;65.40
250;BME280;109;19.806;-70.704;2023-01-01T03:30:29;101832.34;;;23.29;65.19
250;BME280;109;19.806;-70.704;2023-01-01T03:39:05;101825.38;;;23.25;65.04
250;BME280;109;19.806;-70.704;2023-01-01T03:41:48;101823.28;;;23.35;64.93
250;BME280;109;19.806;-70.704;2023-01-01T03:45:00;101817.91;;;23.37;64.68
250;BME280;109;19.806;-70.704;2023-01-01T03:47:41;101818.06;;;23.30;64.77
250;BME280;109;19.806;-70.704;2023-01-01T03:50:08;101813.66;;;23.29;64.63
250;BME280;109;19.806;-70.704;2023-01-01T03:59:14;101806.78;;;23.22;64.79
250;BME280;109;19.806;-70.704;2023-01-01T04:02:01;101795.22;;;23.22;64.88
250;BME280;109;19.806;-70.704;2023-01-01T04:04:35;101795.16;;;23.23;64.89
250;BME280;109;19.806;-70.704;2023-01-01T04:07:16;101797.09;;;23.18;64.65
250;BME280;109;19.806;-70.704;2023-01-01T04:09:47;101791.72;;;23.20;64.94
250;BME280;109;19.806;-70.704;2023-01-01T04:12:29;101786.38;;;23.20;64.85
250;BME280;109;19.806;-70.704;2023-01-01T04:14:56;101780.00;;;23.24;64.94
250;BME280;109;19.806;-70.704;2023-01-01T04:17:37;101780.19;;;23.18;64.96
250;BME280;109;19.806;-70.704;2023-01-01T04:20:04;101779.59;;;23.08;64.89
250;BME280;109;19.806;-70.704;2023-01-01T04:22:55;101785.94;;;23.04;65.02
250;BME280;109;19.806;-70.704;2023-01-01T04:25:35;101773.97;;;23.17;64.74
250;BME280;109;19.806;-70.704;2023-01-01T04:28:01;101774.50;;;23.01;65.09
250;BME280;109;19.806;-70.704;2023-01-01T04:30:42;101770.94;;;23.02;65.17
250;BME280;109;19.806;-70.704;2023-01-01T04:33:08;101777.19;;;23.01;65.22
250;BME280;109;19.806;-70.704;2023-01-01T04:35:55;101766.59;;;22.96;65.02
250;BME280;109;19.806;-70.704;2023-01-01T04:38:35;101760.38;;;22.95;64.73
250;BME280;109;19.806;-70.704;2023-01-01T04:41:15;101750.44;;;23.02;64.90
250;BME280;109;19.806;-70.704;2023-01-01T04:43:46;101760.16;;;23.03;64.75
250;BME280;109;19.806;-70.704;2023-01-01T04:46:26;101764.63;;;23.03;64.77
250;BME280;109;19.806;-70.704;2023-01-01T04:48:53;101754.41;;;22.87;64.78
250;BME280;109;19.806;-70.704;2023-01-01T04:51:32;101746.19;;;22.93;64.82
250;BME280;109;19.806;-70.704;2023-01-01T04:53:59;101745.50;;;22.88;64.85
250;BME280;109;19.806;-70.704;2023-01-01T04:56:46;101739.06;;;22.94;64.80
250;BME280;109;19.806;-70.704;2023-01-01T04:59:19;101739.19;;;22.89;65.00
250;BME280;109;19.806;-70.704;2023-01-01T05:02:00;101730.19;;;22.93;64.92
250;BME280;109;19.806;-70.704;2023-01-01T05:04:27;101732.91;;;22.92;64.98
250;BME280;109;19.806;-70.704;2023-01-01T05:07:06;101732.03;;;22.91;65.10
250;BME280;109;19.806;-70.704;2023-01-01T05:09:32;101734.69;;;22.91;65.16
250;BME280;109;19.806;-70.704;2023-01-01T05:12:12;101734.56;;;22.96;64.88
250;BME280;109;19.806;-70.704;2023-01-01T05:14:38;101731.91;;;22.96;65.24
250;BME280;109;19.806;-70.704;2023-01-01T05:17:19;101743.34;;;23.01;65.30
250;BME280;109;19.806;-70.704;2023-01-01T05:19:46;101735.41;;;22.98;64.93
250;BME280;109;19.806;-70.704;2023-01-01T05:22:25;101736.31;;;22.97;65.07
250;BME280;109;19.806;-70.704;2023-01-01T05:24:52;101729.22;;;22.96;64.98
250;BME280;109;19.806;-70.704;2023-01-01T05:27:31;101729.50;;;22.87;64.96
250;BME280;109;19.806;-70.704;2023-01-01T05:29:58;101725.00;;;22.89;65.37
250;BME280;109;19.806;-70.704;2023-01-01T05:32:38;101723.19;;;22.89;65.26
250;BME280;109;19.806;-70.704;2023-01-01T05:35:11;101715.03;;;22.94;64.97
250;BME280;109;19.806;-70.704;2023-01-01T05:37:58;101712.38;;;22.94;65.07
250;BME280;109;19.806;-70.704;2023-01-01T05:40:38;101712.72;;;22.83;65.27
250;BME280;109;19.806;-70.704;2023-01-01T05:43:06;101705.53;;;22.85;65.10
250;BME280;109;19.806;-70.704;2023-01-01T05:45:45;101699.13;;;22.91;65.08
250;BME280;109;19.806;-70.704;2023-01-01T05:48:12;101697.19;;;22.96;64.88
250;BME280;109;19.806;-70.704;2023-01-01T05:50:52;101697.16;;;22.97;64.82
250;BME280;109;19.806;-70.704;2023-01-01T05:53:18;101690.91;;;22.98;65.14
250;BME280;109;19.806;-70.704;2023-01-01T05:55:59;101685.59;;;22.97;65.05
250;BME280;109;19.806;-70.704;2023-01-01T05:58:27;101686.47;;;22.97;64.76
250;BME280;109;19.806;-70.704;2023-01-01T06:01:17;101683.00;;;22.94;64.89
250;BME280;109;19.806;-70.704;2023-01-01T06:03:51;101674.00;;;22.98;64.98
250;BME280;109;19.806;-70.704;2023-01-01T06:06:32;101688.19;;;23.00;64.98
250;BME280;109;19.806;-70.704;2023-01-01T06:09:02;101674.06;;;22.95;64.67
250;BME280;109;19.806;-70.704;2023-01-01T06:11:43;101677.72;;;22.92;64.70
250;BME280;109;19.806;-70.704;2023-01-01T06:14:09;101678.59;;;22.93;65.03
250;BME280;109;19.806;-70.704;2023-01-01T06:16:49;101672.31;;;22.94;64.80
250;BME280;109;19.806;-70.704;2023-01-01T06:19:23;101666.38;;;22.86;64.84
250;BME280;109;19.806;-70.704;2023-01-01T06:22:03;101662.75;;;22.88;65.00
250;BME280;109;19.806;-70.704;2023-01-01T06:24:31;101666.16;;;22.92;64.66
250;BME280;109;19.806;-70.704;2023-01-01T06:27:11;101670.78;;;22.87;64.83
250;BME280;109;19.806;-70.704;2023-01-01T06:29:38;101662.78;;;22.87;65.10
250;BME280;109;19.806;-70.704;2023-01-01T06:32:17;101656.22;;;22.98;65.04
250;BME280;109;19.806;-70.704;2023-01-01T06:34:43;101660.00;;;22.90;65.11
250;BME280;109;19.806;-70.704;2023-01-01T06:37:31;101665.44;;;22.87;65.36
250;BME280;109;19.806;-70.704;2023-01-01T06:40:10;101664.38;;;22.92;65.27
250;BME280;109;19.806;-70.704;2023-01-01T06:42:50;101660.72;;;22.95;64.77
250;BME280;109;19.806;-70.704;2023-01-01T06:45:17;101658.88;;;22.97;65.24
250;BME280;109;19.806;-70.704;2023-01-01T06:47:56;101651.75;;;22.99;65.00
250;BME280;109;19.806;-70.704;2023-01-01T06:50:23;101653.63;;;22.94;64.91
250;BME280;109;19.806;-70.704;2023-01-01T06:53:03;101651.00;;;22.92;65.11
250;BME280;109;19.806;-70.704;2023-01-01T06:55:49;101647.50;;;22.90;65.10
250;BME280;109;19.806;-70.704;2023-01-01T06:58:22;101650.19;;;22.90;65.00
250;BME280;109;19.806;-70.704;2023-01-01T07:01:08;101649.25;;;22.91;64.68
250;BME280;109;19.806;-70.704;2023-01-01T07:03:42;101646.63;;;22.90;64.75
250;BME280;109;19.806;-70.704;2023-01-01T07:06:22;101647.44;;;22.93;64.79
250;BME280;109;19.806;-70.704;2023-01-01T07:08:49;101647.38;;;22.95;64.77
250;BME280;109;19.806;-70.704;2023-01-01T07:11:29;101645.84;;;22.88;65.15
250;BME280;109;19.806;-70.704;2023-01-01T07:14:04;101643.19;;;22.88;64.76
250;BME280;109;19.806;-70.704;2023-01-01T07:16:44;101637.09;;;22.83;65.33
250;BME280;109;19.806;-70.704;2023-01-01T07:19:11;101623.88;;;22.78;65.15
250;BME280;109;19.806;-70.704;2023-01-01T07:21:52;101629.13;;;22.81;65.23
250;BME280;109;19.806;-70.704;2023-01-01T07:24:20;101621.13;;;22.81;65.21
250;BME280;109;19.806;-70.704;2023-01-01T07:27:00;101626.03;;;22.67;65.32
250;BME280;109;19.806;-70.704;2023-01-01T07:29:26;101628.44;;;22.76;65.07
250;BME280;109;19.806;-70.704;2023-01-01T07:32:12;101634.44;;;22.83;64.94
250;BME280;109;19.806;-70.704;2023-01-01T07:34:45;101629.91;;;22.85;64.85
250;BME280;109;19.806;-70.704;2023-01-01T07:37:32;101627.28;;;22.83;65.10
250;BME280;109;19.806;-70.704;2023-01-01T07:40:11;101628.06;;;22.87;65.05
250;BME280;109;19.806;-70.704;2023-01-01T07:42:52;101628.94;;;22.87;64.75
250;BME280;109;19.806;-70.704;2023-01-01T07:45:19;101634.16;;;22.90;64.90
250;BME280;109;19.806;-70.704;2023-01-01T07:48:08;101629.81;;;22.88;65.09
250;BME280;109;19.806;-70.704;2023-01-01T07:50:51;101620.03;;;22.88;64.96
250;BME280;109;19.806;-70.704;2023-01-01T07:53:17;101615.66;;;22.86;64.83
250;BME280;109;19.806;-70.704;2023-01-01T07:55:57;101618.22;;;22.89;65.06
250;BME280;109;19.806;-70.704;2023-01-01T07:58:24;101610.31;;;22.86;65.24
250;BME280;109;19.806;-70.704;2023-01-01T08:01:11;101614.00;;;22.82;65.48
250;BME280;109;19.806;-70.704;2023-01-01T08:03:46;101623.13;;;22.75;65.55
250;BME280;109;19.806;-70.704;2023-01-01T08:06:28;101616.28;;;22.66;65.49
250;BME280;109;19.806;-70.704;2023-01-01T08:08:55;101616.53;;;22.58;65.82
250;BME280;109;19.806;-70.704;2023-01-01T08:11:34;101609.59;;;22.51;65.59
250;BME280;109;19.806;-70.704;2023-01-01T08:14:01;101620.50;;;22.45;65.81
250;BME280;109;19.806;-70.704;2023-01-01T08:16:48;101623.44;;;22.35;65.99
250;BME280;109;19.806;-70.704;2023-01-01T08:19:21;101622.69;;;22.29;66.03
250;BME280;109;19.806;-70.704;2023-01-01T08:22:01;101632.56;;;22.26;65.88
250;BME280;109;19.806;-70.704;2023-01-01T08:24:28;101620.75;;;22.05;66.30
250;BME280;109;19.806;-70.704;2023-01-01T08:27:11;101625.09;;;22.09;66.09
250;BME280;109;19.806;-70.704;2023-01-01T08:29:45;101625.81;;;22.14;66.31
250;BME280;109;19.806;-70.704;2023-01-01T08:32:26;101612.94;;;22.28;65.90
250;BME280;109;19.806;-70.704;2023-01-01T08:34:53;101618.91;;;22.38;65.97
250;BME280;109;19.806;-70.704;2023-01-01T08:37:39;101617.00;;;22.43;65.67
250;BME280;109;19.806;-70.704;2023-01-01T08:40:18;101616.91;;;22.46;66.04
250;BME280;109;19.806;-70.704;2023-01-01T08:42:58;101625.00;;;22.43;65.68
250;BME280;109;19.806;-70.704;2023-01-01T08:45:38;101618.78;;;22.43;66.04
250;BME280;109;19.806;-70.704;2023-01-01T08:48:05;101622.41;;;22.40;66.16
250;BME280;109;19.806;-70.704;2023-01-01T08:50:52;101630.44;;;22.39;66.12
250;BME280;109;19.806;-70.704;2023-01-01T08:53:29;101629.50;;;22.41;65.76
250;BME280;109;19.806;-70.704;2023-01-01T08:56:17;101629.38;;;22.46;65.73
250;BME280;109;19.806;-70.704;2023-01-01T08:58:51;101622.94;;;22.51;65.40
250;BME280;109;19.806;-70.704;2023-01-01T09:01:32;101630.19;;;22.48;65.80
250;BME280;109;19.806;-70.704;2023-01-01T09:03:58;101634.66;;;22.47;65.63
250;BME280;109;19.806;-70.704;2023-01-01T09:06:43;101634.53;;;22.50;65.70
250;BME280;109;19.806;-70.704;2023-01-01T09:09:10;101635.28;;;22.55;65.52
250;BME280;109;19.806;-70.704;2023-01-01T09:11:51;101637.00;;;22.58;65.49
250;BME280;109;19.806;-70.704;2023-01-01T09:14:19;101630.00;;;22.54;65.55
250;BME280;109;19.806;-70.704;2023-01-01T09:16:59;101634.38;;;22.56;65.75
250;BME280;109;19.806;-70.704;2023-01-01T09:19:25;101626.50;;;22.52;65.64
250;BME280;109;19.806;-70.704;2023-01-01T09:22:10;101623.88;;;22.50;65.76
250;BME280;109;19.806;-70.704;2023-01-01T09:24:43;101629.91;;;22.57;66.22
250;BME280;109;19.806;-70.704;2023-01-01T09:27:23;101631.78;;;22.53;66.26
250;BME280;109;19.806;-70.704;2023-01-01T09:29:50;101634.38;;;22.56;66.13
250;BME280;109;19.806;-70.704;2023-01-01T09:32:29;101633.53;;;22.54;66.38
250;BME280;109;19.806;-70.704;2023-01-01T09:34:56;101634.41;;;22.55;66.27
250;BME280;109;19.806;-70.704;2023-01-01T09:37:43;101632.66;;;22.54;65.88
250;BME280;109;19.806;-70.704;2023-01-01T09:46:37;101647.88;;;22.50;66.25
250;BME280;109;19.806;-70.704;2023-01-01T09:49:17;101648.63;;;22.55;66.52
250;BME280;109;19.806;-70.704;2023-01-01T09:52:01;101647.16;;;22.45;66.16
250;BME280;109;19.806;-70.704;2023-01-01T09:54:37;101646.63;;;22.33;66.24
250;BME280;109;19.806;-70.704;2023-01-01T09:57:29;101645.03;;;22.25;66.49
250;BME280;109;19.806;-70.704;2023-01-01T10:00:09;101649.56;;;22.23;66.52
250;BME280;109;19.806;-70.704;2023-01-01T10:03:04;101648.81;;;22.18;66.51
250;BME280;109;19.806;-70.704;2023-01-01T10:09:06;101655.09;;;22.16;66.58
250;BME280;109;19.806;-70.704;2023-01-01T10:14:43;101655.50;;;22.02;66.61
250;BME280;109;19.806;-70.704;2023-01-01T10:17:41;101650.16;;;22.02;66.50
250;BME280;109;19.806;-70.704;2023-01-01T10:20:41;101646.78;;;21.97;66.32
250;BME280;109;19.806;-70.704;2023-01-01T10:23:25;101647.72;;;21.94;66.68
250;BME280;109;19.806;-70.704;2023-01-01T10:26:16;101654.81;;;21.96;66.66
250;BME280;109;19.806;-70.704;2023-01-01T10:34:57;101647.34;;;22.08;66.21
250;BME280;109;19.806;-70.704;2023-01-01T10:37:45;101654.41;;;22.09;66.54
250;BME280;109;19.806;-70.704;2023-01-01T10:40:20;101652.63;;;22.10;66.34
250;BME280;109;19.806;-70.704;2023-01-01T10:42:52;101655.28;;;22.10;66.43
250;BME280;109;19.806;-70.704;2023-01-01T10:45:38;101658.94;;;22.06;66.56
250;BME280;109;19.806;-70.704;2023-01-01T10:48:25;101657.13;;;22.08;66.67
250;BME280;109;19.806;-70.704;2023-01-01T10:51:06;101664.38;;;22.03;66.71
250;BME280;109;19.806;-70.704;2023-01-01T10:53:51;101665.97;;;22.10;66.86
250;BME280;109;19.806;-70.704;2023-01-01T10:56:22;101664.00;;;22.15;66.88
250;BME280;109;19.806;-70.704;2023-01-01T10:58:54;101666.53;;;22.21;66.64
250;BME280;109;19.806;-70.704;2023-01-01T11:01:29;101668.94;;;22.28;66.56
250;BME280;109;19.806;-70.704;2023-01-01T11:04:02;101675.09;;;22.32;66.56
250;BME280;109;19.806;-70.704;2023-01-01T11:06:43;101672.28;;;22.37;66.55
250;BME280;109;19.806;-70.704;2023-01-01T11:09:27;101683.03;;;22.34;66.57
250;BME280;109;19.806;-70.704;2023-01-01T11:11:59;101690.25;;;22.30;66.55
250;BME280;109;19.806;-70.704;2023-01-01T11:14:28;101689.41;;;22.28;66.56
250;BME280;109;19.806;-70.704;2023-01-01T11:16:56;101683.44;;;22.20;66.34
250;BME280;109;19.806;-70.704;2023-01-01T11:19:34;101688.94;;;22.14;66.76
250;BME280;109;19.806;-70.704;2023-01-01T11:22:04;101689.84;;;22.13;66.91
250;BME280;109;19.806;-70.704;2023-01-01T11:24:34;101697.94;;;22.10;66.60
250;BME280;109;19.806;-70.704;2023-01-01T11:27:23;101697.06;;;22.09;66.83
250;BME280;109;19.806;-70.704;2023-01-01T11:29:51;101693.53;;;22.09;66.91
250;BME280;109;19.806;-70.704;2023-01-01T11:32:31;101693.56;;;22.07;66.47
250;BME280;109;19.806;-70.704;2023-01-01T11:35:03;101705.06;;;22.09;66.69
250;BME280;109;19.806;-70.704;2023-01-01T11:37:34;101700.66;;;22.08;66.61
250;BME280;109;19.806;-70.704;2023-01-01T11:40:04;101717.59;;;22.06;66.38
250;BME280;109;19.806;-70.704;2023-01-01T11:42:36;101720.16;;;22.10;66.54
250;BME280;109;19.806;-70.704;2023-01-01T11:45:18;101720.94;;;22.14;66.69
250;BME280;109;19.806;-70.704;2023-01-01T11:47:52;101720.09;;;22.12;66.47
250;BME280;109;19.806;-70.704;2023-01-01T11:50:40;101726.25;;;22.14;66.61
250;BME280;109;19.806;-70.704;2023-01-01T11:56:14;101722.59;;;22.18;66.83
250;BME280;109;19.806;-70.704;2023-01-01T11:59:02;101741.09;;;22.24;66.10
250;BME280;109;19.806;-70.704;2023-01-01T12:01:38;101743.66;;;22.27;66.50
250;BME280;109;19.806;-70.704;2023-01-01T12:04:12;101740.09;;;22.28;66.13
250;BME280;109;19.806;-70.704;2023-01-01T12:06:49;101758.63;;;22.33;66.22
250;BME280;109;19.806;-70.704;2023-01-01T12:12:12;101761.13;;;22.40;66.53
250;BME280;109;19.806;-70.704;2023-01-01T12:17:37;101764.81;;;22.35;66.27
250;BME280;109;19.806;-70.704;2023-01-01T12:20:18;101770.19;;;22.33;66.54
250;BME280;109;19.806;-70.704;2023-01-01T12:22:48;101777.19;;;22.37;66.40
250;BME280;109;19.806;-70.704;2023-01-01T12:25:18;101778.72;;;22.47;66.23
250;BME280;109;19.806;-70.704;2023-01-01T12:28:17;101783.94;;;22.50;65.95
250;BME280;109;19.806;-70.704;2023-01-01T12:37:15;101792.66;;;23.17;65.09
250;BME280;109;19.806;-70.704;2023-01-01T12:48:51;101803.13;;;23.81;63.93
250;BME280;109;19.806;-70.704;2023-01-01T12:51:47;101816.94;;;23.93;63.73
250;BME280;109;19.806;-70.704;2023-01-01T13:00:02;101823.28;;;24.19;62.83
250;BME280;109;19.806;-70.704;2023-01-01T13:02:32;101823.81;;;24.28;62.72
250;BME280;109;19.806;-70.704;2023-01-01T13:05:04;101828.88;;;24.36;62.35
250;BME280;109;19.806;-70.704;2023-01-01T13:07:38;101831.34;;;24.42;62.36
250;BME280;109;19.806;-70.704;2023-01-01T13:12:44;101842.63;;;24.77;61.43
250;BME280;109;19.806;-70.704;2023-01-01T13:16:12;101831.19;;;24.96;61.22
250;BME280;109;19.806;-70.704;2023-01-01T13:18:21;101845.91;;;25.08;61.06
250;BME280;109;19.806;-70.704;2023-01-01T13:20:55;101850.47;;;25.28;60.80
250;BME280;109;19.806;-70.704;2023-01-01T13:34:57;101844.56;;;25.65;58.45
250;BME280;109;19.806;-70.704;2023-01-01T13:37:29;101844.06;;;25.55;59.01
250;BME280;109;19.806;-70.704;2023-01-01T13:42:37;101853.31;;;25.70;58.32
250;BME280;109;19.806;-70.704;2023-01-01T13:45:20;101851.50;;;25.49;58.42
250;BME280;109;19.806;-70.704;2023-01-01T13:54:07;101858.13;;;25.38;58.74
250;BME280;109;19.806;-70.704;2023-01-01T13:57:09;101851.34;;;25.52;59.00
250;BME280;109;19.806;-70.704;2023-01-01T14:02:53;101846.44;;;25.63;58.15
250;BME280;109;19.806;-70.704;2023-01-01T14:07:58;101853.00;;;25.99;58.07
250;BME280;109;19.806;-70.704;2023-01-01T14:10:27;101853.44;;;26.10;57.88
250;BME280;109;19.806;-70.704;2023-01-01T14:13:15;101855.94;;;25.93;57.80
250;BME280;109;19.806;-70.704;2023-01-01T14:15:55;101856.41;;;26.03;58.09
250;BME280;109;19.806;-70.704;2023-01-01T14:18:49;101861.06;;;25.99;58.02
250;BME280;109;19.806;-70.704;2023-01-01T14:21:19;101857.72;;;26.14;57.91
250;BME280;109;19.806;-70.704;2023-01-01T14:23:53;101858.34;;;26.21;58.11
250;BME280;109;19.806;-70.704;2023-01-01T14:26:23;101852.63;;;26.29;57.99
250;BME280;109;19.806;-70.704;2023-01-01T14:28:55;101862.44;;;25.88;57.03
250;BME280;109;19.806;-70.704;2023-01-01T14:31:25;101868.66;;;25.88;57.76
250;BME280;109;19.806;-70.704;2023-01-01T14:33:54;101858.91;;;26.07;57.64
250;BME280;109;19.806;-70.704;2023-01-01T14:36:22;101852.44;;;26.13;57.21
250;BME280;109;19.806;-70.704;2023-01-01T14:38:56;101861.41;;;26.12;56.85
250;BME280;109;19.806;-70.704;2023-01-01T14:41:32;101865.63;;;26.17;57.22
250;BME280;109;19.806;-70.704;2023-01-01T14:44:09;101860.72;;;26.27;57.11
250;BME280;109;19.806;-70.704;2023-01-01T14:46:43;101860.53;;;26.11;57.30
250;BME280;109;19.806;-70.704;2023-01-01T14:49:36;101861.13;;;26.18;57.66
250;BME280;109;19.806;-70.704;2023-01-01T14:52:27;101853.63;;;26.06;57.09
250;BME280;109;19.806;-70.704;2023-01-01T14:54:56;101853.31;;;26.13;57.39
250;BME280;109;19.806;-70.704;2023-01-01T14:57:27;101863.34;;;26.29;57.77
250;BME280;109;19.806;-70.704;2023-01-01T14:59:55;101853.03;;;26.20;57.04
250;BME280;109;19.806;-70.704;2023-01-01T15:02:22;101851.44;;;26.36;57.54
250;BME280;109;19.806;-70.704;2023-01-01T15:04:51;101845.84;;;26.20;57.00
250;BME280;109;19.806;-70.704;2023-01-01T15:07:28;101846.03;;;26.15;57.35
250;BME280;109;19.806;-70.704;2023-01-01T15:09:59;101838.56;;;26.44;57.20
250;BME280;109;19.806;-70.704;2023-01-01T15:12:34;101836.59;;;26.27;57.08
250;BME280;109;19.806;-70.704;2023-01-01T15:15:02;101844.56;;;26.08;57.48
250;BME280;109;19.806;-70.704;2023-01-01T15:17:44;101838.78;;;26.39;57.86
250;BME280;109;19.806;-70.704;2023-01-01T15:20:29;101834.47;;;26.35;57.23
250;BME280;109;19.806;-70.704;2023-01-01T15:22:56;101835.25;;;26.37;57.46
250;BME280;109;19.806;-70.704;2023-01-01T15:25:23;101821.47;;;26.46;57.58
250;BME280;109;19.806;-70.704;2023-01-01T15:27:52;101824.66;;;26.34;57.78
250;BME280;109;19.806;-70.704;2023-01-01T15:30:28;101824.59;;;26.36;57.76
250;BME280;109;19.806;-70.704;2023-01-01T15:33:05;101817.53;;;26.33;57.83
250;BME280;109;19.806;-70.704;2023-01-01T15:35:33;101813.03;;;26.34;57.21
250;BME280;109;19.806;-70.704;2023-01-01T15:38:22;101820.47;;;26.49;56.50
250;BME280;109;19.806;-70.704;2023-01-01T15:40:50;101818.84;;;26.65;56.82
250;BME280;109;19.806;-70.704;2023-01-01T15:43:25;101817.41;;;26.77;55.24
250;BME280;109;19.806;-70.704;2023-01-01T15:46:21;101817.78;;;26.88;54.63